createdAt,value
2022-12-16T00:00:17.996Z,-1.91
2022-12-16T00:01:17.988Z,-1.86
2022-12-16T00:02:17.979Z,-1.79
2022-12-16T00:03:18.004Z,-1.58
2022-12-16T00:04:17.884Z,-1.52
2022-12-16T00:05:17.863Z,-1.37
2022-12-16T00:06:17.823Z,-1.43
2022-12-16T00:07:17.799Z,-1.37
2022-12-16T00:08:17.763Z,-1.34
2022-12-16T00:09:17.738Z,-1.49
2022-12-16T00:10:17.709Z,-1.31
2022-12-16T00:11:17.685Z,-1.39
2022-12-16T00:12:17.652Z,-1.37
2022-12-16T00:13:17.630Z,-1.47
2022-12-16T00:14:17.598Z,-1.51
2022-12-16T00:15:17.570Z,-1.65
2022-12-16T00:16:17.645Z,-1.75
2022-12-16T00:17:17.536Z,-1.78
2022-12-16T00:18:17.482Z,-1.85
2022-12-16T00:19:17.457Z,-1.79
2022-12-16T00:20:17.420Z,-1.80
2022-12-16T00:21:17.406Z,-1.75
2022-12-16T00:22:17.362Z,-1.69
2022-12-16T00:23:17.341Z,-1.62
2022-12-16T00:24:17.303Z,-1.58
2022-12-16T00:25:17.278Z,-1.49
2022-12-16T00:26:17.255Z,-1.44
2022-12-16T00:27:17.222Z,-1.46
2022-12-16T00:28:17.198Z,-1.41
2022-12-16T00:29:17.169Z,-1.59
2022-12-16T00:30:17.139Z,-1.62
2022-12-16T00:31:17.182Z,-1.55
2022-12-16T00:32:17.078Z,-1.61
2022-12-16T00:33:17.068Z,-1.65
2022-12-16T00:34:17.027Z,-1.80
2022-12-16T00:35:16.996Z,-1.69
2022-12-16T00:36:16.966Z,-1.76
2022-12-16T00:37:16.932Z,-1.73
2022-12-16T00:38:16.904Z,-1.78
2022-12-16T00:39:16.880Z,-1.85
2022-12-16T00:40:16.845Z,-1.97
2022-12-16T00:41:16.819Z,-1.96
2022-12-16T00:42:16.789Z,-1.94
2022-12-16T00:43:16.766Z,-2.04
2022-12-16T00:44:16.734Z,-2.24
2022-12-16T00:45:16.706Z,-2.46
2022-12-16T00:46:16.748Z,-2.49
2022-12-16T00:47:16.658Z,-2.48
2022-12-16T00:48:16.617Z,-2.30
2022-12-16T00:49:16.609Z,-2.16
2022-12-16T00:50:16.556Z,-2.22
2022-12-16T00:51:16.539Z,-2.22
2022-12-16T00:52:16.501Z,-2.21
2022-12-16T00:53:16.472Z,-2.29
2022-12-16T00:54:16.444Z,-2.18
2022-12-16T00:55:16.418Z,-2.18
2022-12-16T00:56:16.385Z,-2.18
2022-12-16T00:57:16.357Z,-2.21
2022-12-16T00:58:16.329Z,-2.37
2022-12-16T00:59:16.302Z,-2.29
2022-12-16T01:00:16.269Z,-2.22
2022-12-16T01:01:16.320Z,-2.15
2022-12-16T01:02:16.414Z,-2.11
2022-12-16T01:03:21.312Z,-2.04
2022-12-16T01:04:16.154Z,-2.03
2022-12-16T01:05:16.156Z,-1.88
2022-12-16T01:06:16.096Z,-1.85
2022-12-16T01:07:16.069Z,-1.73
2022-12-16T01:08:16.041Z,-1.72
2022-12-16T01:09:16.011Z,-1.61
2022-12-16T01:10:15.978Z,-1.54
2022-12-16T01:11:15.955Z,-1.79
2022-12-16T01:12:15.918Z,-1.67
2022-12-16T01:13:15.899Z,-1.72
2022-12-16T01:14:15.861Z,-1.76
2022-12-16T01:15:15.835Z,-1.85
2022-12-16T01:16:15.922Z,-1.79
2022-12-16T01:17:15.779Z,-1.80
2022-12-16T01:18:15.749Z,-1.57
2022-12-16T01:19:15.717Z,-1.61
2022-12-16T01:20:15.685Z,-1.61
2022-12-16T01:21:15.701Z,-1.80
2022-12-16T01:22:15.634Z,-1.75
2022-12-16T01:23:15.609Z,-1.78
2022-12-16T01:24:15.574Z,-1.96
2022-12-16T01:25:15.556Z,-1.97
2022-12-16T01:26:15.520Z,-1.86
2022-12-16T01:27:15.482Z,-1.88
2022-12-16T01:28:15.463Z,-1.85
2022-12-16T01:29:15.423Z,-1.86
2022-12-16T01:30:15.399Z,-1.80
2022-12-16T01:31:15.442Z,-1.88
2022-12-16T01:32:15.398Z,-1.85
2022-12-16T01:33:15.314Z,-1.93
2022-12-16T01:34:15.291Z,-1.90
2022-12-16T01:35:50.840Z,-1.96
2022-12-16T01:36:15.229Z,-1.93
2022-12-16T01:37:15.217Z,-1.91
2022-12-16T01:38:15.167Z,-1.83
2022-12-16T01:39:15.137Z,-1.79
2022-12-16T01:40:15.113Z,-1.69
2022-12-16T01:41:15.078Z,-1.64
2022-12-16T01:42:15.056Z,-1.57
2022-12-16T01:43:15.020Z,-1.55
2022-12-16T01:44:15.001Z,-1.55
2022-12-16T01:45:14.969Z,-1.37
2022-12-16T01:46:15.031Z,-1.36
2022-12-16T01:47:14.912Z,-1.37
2022-12-16T01:48:14.886Z,-1.43
2022-12-16T01:49:14.851Z,-1.41
2022-12-16T01:50:14.824Z,-1.39
2022-12-16T01:51:14.803Z,-1.28
2022-12-16T01:52:14.768Z,-1.25
2022-12-16T01:53:14.752Z,-1.28
2022-12-16T01:54:14.708Z,-1.18
2022-12-16T01:55:14.680Z,-1.18
2022-12-16T01:56:14.649Z,-1.15
2022-12-16T01:57:14.620Z,-1.16
2022-12-16T01:58:14.598Z,-1.21
2022-12-16T01:59:14.566Z,-1.22
2022-12-16T02:00:14.542Z,-1.22
2022-12-16T02:01:14.601Z,-1.23
2022-12-16T02:02:14.543Z,-1.25
2022-12-16T02:03:14.545Z,-1.34
2022-12-16T02:04:14.423Z,-1.34
2022-12-16T02:05:14.390Z,-1.39
2022-12-16T02:06:14.364Z,-1.34
2022-12-16T02:07:14.336Z,-1.34
2022-12-16T02:08:14.311Z,-1.25
2022-12-16T02:09:14.302Z,-1.29
2022-12-16T02:10:14.249Z,-1.15
2022-12-16T02:11:14.214Z,-1.11
2022-12-16T02:12:14.194Z,-1.10
2022-12-16T02:13:14.167Z,-1.18
2022-12-16T02:14:14.141Z,-1.15
2022-12-16T02:15:14.110Z,-1.29
2022-12-16T02:16:17.135Z,-1.43
2022-12-16T02:17:14.122Z,-1.51
2022-12-16T02:18:14.023Z,-1.51
2022-12-16T02:19:13.985Z,-1.70
2022-12-16T02:20:13.959Z,-1.65
2022-12-16T02:21:13.932Z,-1.62
2022-12-16T02:22:13.907Z,-1.51
2022-12-16T02:23:13.875Z,-1.40
2022-12-16T02:24:13.844Z,-1.34
2022-12-16T02:25:13.892Z,-1.29
2022-12-16T02:26:13.788Z,-1.23
2022-12-16T02:27:13.757Z,-1.26
2022-12-16T02:28:13.728Z,-1.18
2022-12-16T02:29:13.698Z,-1.11
2022-12-16T02:30:13.674Z,-1.16
2022-12-16T02:31:13.673Z,-1.26
2022-12-16T02:32:13.617Z,-1.36
2022-12-16T02:33:13.590Z,-1.34
2022-12-16T02:34:13.561Z,-1.29
2022-12-16T02:35:13.526Z,-1.33
2022-12-16T02:36:13.504Z,-1.36
2022-12-16T02:37:13.469Z,-1.39
2022-12-16T02:38:13.450Z,-1.47
2022-12-16T02:39:13.412Z,-1.37
2022-12-16T02:40:13.388Z,-1.62
2022-12-16T02:41:13.442Z,-1.61
2022-12-16T02:42:13.336Z,-1.73
2022-12-16T02:43:13.299Z,-1.97
2022-12-16T02:44:13.275Z,-2.09
2022-12-16T02:45:13.236Z,-1.91
2022-12-16T02:46:13.309Z,-1.94
2022-12-16T02:47:13.181Z,-1.88
2022-12-16T02:48:13.153Z,-1.83
2022-12-16T02:49:13.124Z,-1.75
2022-12-16T02:50:13.101Z,-1.72
2022-12-16T02:51:13.067Z,-1.57
2022-12-16T02:52:13.042Z,-1.51
2022-12-16T02:53:13.005Z,-1.52
2022-12-16T02:54:12.986Z,-1.47
2022-12-16T02:55:12.950Z,-1.43
2022-12-16T02:56:12.927Z,-1.47
2022-12-16T02:57:12.912Z,-1.62
2022-12-16T02:58:12.872Z,-1.62
2022-12-16T02:59:12.834Z,-1.61
2022-12-16T03:00:12.816Z,-1.59
2022-12-16T03:01:12.845Z,-1.55
2022-12-16T03:02:12.927Z,-1.51
2022-12-16T03:03:12.786Z,-1.52
2022-12-16T03:04:12.695Z,-1.51
2022-12-16T03:05:12.660Z,-1.41
2022-12-16T03:06:12.641Z,-1.51
2022-12-16T03:07:12.603Z,-1.39
2022-12-16T03:08:12.585Z,-1.26
2022-12-16T03:09:12.547Z,-1.36
2022-12-16T03:10:12.525Z,-1.41
2022-12-16T03:11:12.490Z,-1.55
2022-12-16T03:12:12.465Z,-1.62
2022-12-16T03:13:12.451Z,-1.80
2022-12-16T03:14:12.404Z,-2.00
2022-12-16T03:15:12.375Z,-2.00
2022-12-16T03:16:12.397Z,-2.22
2022-12-16T03:17:12.315Z,-2.41
2022-12-16T03:18:12.295Z,-2.18
2022-12-16T03:19:12.261Z,-2.19
2022-12-16T03:20:12.247Z,-2.09
2022-12-16T03:21:12.202Z,-2.04
2022-12-16T03:22:12.173Z,-2.01
2022-12-16T03:23:12.141Z,-2.01
2022-12-16T03:24:12.117Z,-2.00
2022-12-16T03:25:12.091Z,-1.88
2022-12-16T03:26:12.055Z,-1.85
2022-12-16T03:27:12.026Z,-1.82
2022-12-16T03:28:11.999Z,-1.65
2022-12-16T03:29:11.985Z,-1.59
2022-12-16T03:30:11.944Z,-1.64
2022-12-16T03:31:11.969Z,-1.59
2022-12-16T03:32:11.882Z,-1.54
2022-12-16T03:33:11.852Z,-1.55
2022-12-16T03:34:11.833Z,-1.59
2022-12-16T03:35:11.795Z,-1.65
2022-12-16T03:36:11.775Z,-1.73
2022-12-16T03:37:11.737Z,-1.98
2022-12-16T03:38:11.714Z,-1.98
2022-12-16T03:39:11.681Z,-2.06
2022-12-16T03:40:11.654Z,-2.01
2022-12-16T03:41:11.619Z,-2.08
2022-12-16T03:42:11.600Z,-2.00
2022-12-16T03:43:11.564Z,-1.96
2022-12-16T03:44:11.532Z,-1.93
2022-12-16T03:45:11.582Z,-1.94
2022-12-16T03:46:11.566Z,-1.94
2022-12-16T03:47:11.445Z,-1.88
2022-12-16T03:48:11.417Z,-1.94
2022-12-16T03:49:11.387Z,-1.86
2022-12-16T03:50:11.362Z,-1.93
2022-12-16T03:51:11.330Z,-2.00
2022-12-16T03:52:11.303Z,-2.01
2022-12-16T03:53:11.268Z,-1.90
2022-12-16T03:54:11.243Z,-1.98
2022-12-16T03:55:11.215Z,-2.01
2022-12-16T03:56:11.186Z,-1.98
2022-12-16T03:57:15.461Z,-1.94
2022-12-16T03:58:11.130Z,-1.83
2022-12-16T03:59:11.094Z,-1.88
2022-12-16T04:00:11.067Z,-1.80
2022-12-16T04:01:11.142Z,-1.82
2022-12-16T04:02:11.277Z,-1.80
2022-12-16T04:03:11.230Z,-1.80
2022-12-16T04:04:10.952Z,-1.88
2022-12-16T04:05:10.921Z,-1.93
2022-12-16T04:06:10.897Z,-1.88
2022-12-16T04:07:10.866Z,-1.91
2022-12-16T04:08:10.837Z,-1.83
2022-12-16T04:09:10.803Z,-1.78
2022-12-16T04:10:10.780Z,-1.80
2022-12-16T04:11:10.749Z,-1.76
2022-12-16T04:12:10.718Z,-1.85
2022-12-16T04:13:10.693Z,-1.98
2022-12-16T04:14:10.666Z,-2.12
2022-12-16T04:15:10.639Z,-2.21
2022-12-16T04:16:10.717Z,-2.26
2022-12-16T04:17:10.689Z,-2.29
2022-12-16T04:18:10.548Z,-2.22
2022-12-16T04:19:10.519Z,-2.16
2022-12-16T04:20:10.487Z,-2.12
2022-12-16T04:21:10.465Z,-2.06
2022-12-16T04:22:10.436Z,-1.97
2022-12-16T04:23:10.403Z,-1.97
2022-12-16T04:24:10.372Z,-2.04
2022-12-16T04:25:10.339Z,-2.04
2022-12-16T04:26:10.315Z,-2.11
2022-12-16T04:27:15.289Z,-2.34
2022-12-16T04:28:10.256Z,-2.43
2022-12-16T04:29:10.226Z,-2.45
2022-12-16T04:30:10.200Z,-2.54
2022-12-16T04:31:10.233Z,-2.66
2022-12-16T04:32:10.140Z,-2.69
2022-12-16T04:33:10.130Z,-2.69
2022-12-16T04:34:10.086Z,-2.69
2022-12-16T04:35:10.052Z,-2.70
2022-12-16T04:36:10.026Z,-2.76
2022-12-16T04:37:09.994Z,-2.64
2022-12-16T04:38:09.965Z,-2.51
2022-12-16T04:39:09.934Z,-2.46
2022-12-16T04:40:09.902Z,-2.35
2022-12-16T04:41:09.872Z,-2.33
2022-12-16T04:42:09.843Z,-2.21
2022-12-16T04:43:09.813Z,-2.43
2022-12-16T04:44:09.792Z,-2.63
2022-12-16T04:45:09.757Z,-2.46
2022-12-16T04:46:09.816Z,-2.40
2022-12-16T04:47:09.700Z,-2.46
2022-12-16T04:48:09.674Z,-2.38
2022-12-16T04:49:09.653Z,-2.24
2022-12-16T04:50:09.613Z,-2.24
2022-12-16T04:51:09.588Z,-2.14
2022-12-16T04:52:09.551Z,-2.11
2022-12-16T04:53:09.524Z,-2.01
2022-12-16T04:54:09.490Z,-2.03
2022-12-16T04:55:09.461Z,-2.08
2022-12-16T04:56:09.442Z,-2.08
2022-12-16T04:57:09.410Z,-2.06
2022-12-16T04:58:09.379Z,-2.34
2022-12-16T04:59:09.342Z,-2.24
2022-12-16T05:00:09.321Z,-2.16
2022-12-16T05:01:09.365Z,-2.18
2022-12-16T05:02:09.424Z,-2.14
2022-12-16T05:03:09.268Z,-2.16
2022-12-16T05:04:09.198Z,-2.08
2022-12-16T05:05:09.193Z,-2.04
2022-12-16T05:06:09.141Z,-2.16
2022-12-16T05:07:09.109Z,-2.18
2022-12-16T05:08:09.086Z,-2.08
2022-12-16T05:09:09.052Z,-2.03
2022-12-16T05:10:09.027Z,-2.11
2022-12-16T05:11:08.998Z,-1.94
2022-12-16T05:12:08.966Z,-2.01
2022-12-16T05:13:08.933Z,-1.97
2022-12-16T05:14:08.913Z,-1.88
2022-12-16T05:15:08.883Z,-1.94
2022-12-16T05:16:08.882Z,-2.01
2022-12-16T05:17:08.886Z,-2.11
2022-12-16T05:18:08.797Z,-2.29
2022-12-16T05:19:08.760Z,-2.30
2022-12-16T05:20:08.737Z,-2.41
2022-12-16T05:21:08.848Z,-2.51
2022-12-16T05:22:08.675Z,-2.63
2022-12-16T05:23:08.644Z,-2.69
2022-12-16T05:24:08.615Z,-2.79
2022-12-16T05:25:08.584Z,-2.55
2022-12-16T05:26:08.560Z,-2.64
2022-12-16T05:27:08.529Z,-2.51
2022-12-16T05:28:08.495Z,-2.46
2022-12-16T05:29:08.472Z,-2.54
2022-12-16T05:30:08.444Z,-2.43
2022-12-16T05:31:08.458Z,-2.55
2022-12-16T05:32:08.380Z,-2.63
2022-12-16T05:33:08.351Z,-2.49
2022-12-16T05:34:08.332Z,-2.61
2022-12-16T05:35:08.301Z,-2.69
2022-12-16T05:36:08.271Z,-2.66
2022-12-16T05:37:08.260Z,-2.66
2022-12-16T05:38:08.209Z,-2.64
2022-12-16T05:39:08.177Z,-2.63
2022-12-16T05:40:08.142Z,-2.52
2022-12-16T05:41:08.122Z,-2.49
2022-12-16T05:42:08.089Z,-2.41
2022-12-16T05:43:10.910Z,-2.22
2022-12-16T05:44:08.032Z,-2.21
2022-12-16T05:45:08.001Z,-2.22
2022-12-16T05:46:08.105Z,-2.16
2022-12-16T05:47:08.023Z,-2.12
2022-12-16T05:48:07.908Z,-2.11
2022-12-16T05:49:07.887Z,-2.12
2022-12-16T05:50:07.857Z,-2.21
2022-12-16T05:51:07.826Z,-2.40
2022-12-16T05:52:07.799Z,-2.51
2022-12-16T05:53:07.856Z,-2.40
2022-12-16T05:54:07.741Z,-2.46
2022-12-16T05:55:07.713Z,-2.54
2022-12-16T05:56:07.678Z,-2.56
2022-12-16T05:57:07.654Z,-2.70
2022-12-16T05:58:07.620Z,-2.70
2022-12-16T05:59:07.698Z,-2.55
2022-12-16T06:00:07.559Z,-2.58
2022-12-16T06:01:07.543Z,-2.52
2022-12-16T06:02:07.654Z,-2.58
2022-12-16T06:03:07.583Z,-2.40
2022-12-16T06:04:09.753Z,-2.41
2022-12-16T06:05:07.412Z,-2.40
2022-12-16T06:06:07.389Z,-2.43
2022-12-16T06:07:07.372Z,-2.43
2022-12-16T06:08:07.334Z,-2.45
2022-12-16T06:09:07.324Z,-2.52
2022-12-16T06:10:07.271Z,-2.69
2022-12-16T06:11:07.249Z,-2.59
2022-12-16T06:12:07.210Z,-2.66
2022-12-16T06:13:07.182Z,-2.67
2022-12-16T06:14:07.151Z,-2.56
2022-12-16T06:15:07.125Z,-2.45
2022-12-16T06:16:09.096Z,-2.55
2022-12-16T06:17:07.068Z,-2.56
2022-12-16T06:18:07.036Z,-2.67
2022-12-16T06:19:07.007Z,-2.69
2022-12-16T06:20:06.974Z,-2.73
2022-12-16T06:21:06.948Z,-2.85
2022-12-16T06:22:06.913Z,-2.84
2022-12-16T06:23:06.893Z,-2.98
2022-12-16T06:24:06.858Z,-3.01
2022-12-16T06:25:06.849Z,-3.09
2022-12-16T06:26:06.798Z,-3.09
2022-12-16T06:27:06.779Z,-3.03
2022-12-16T06:28:06.740Z,-3.05
2022-12-16T06:29:06.712Z,-3.09
2022-12-16T06:30:06.680Z,-3.09
2022-12-16T06:31:06.758Z,-2.98
2022-12-16T06:32:06.623Z,-2.90
2022-12-16T06:33:06.594Z,-2.85
2022-12-16T06:34:06.565Z,-2.74
2022-12-16T06:35:06.535Z,-2.67
2022-12-16T06:36:06.501Z,-2.70
2022-12-16T06:37:06.477Z,-2.74
2022-12-16T06:38:06.458Z,-2.70
2022-12-16T06:39:06.411Z,-2.61
2022-12-16T06:40:06.382Z,-2.56
2022-12-16T06:41:06.497Z,-2.59
2022-12-16T06:42:06.328Z,-2.63
2022-12-16T06:43:06.296Z,-2.67
2022-12-16T06:44:06.271Z,-2.74
2022-12-16T06:45:06.238Z,-2.67
2022-12-16T06:46:06.244Z,-2.63
2022-12-16T06:47:06.179Z,-2.73
2022-12-16T06:48:06.149Z,-2.85
2022-12-16T06:49:06.118Z,-2.92
2022-12-16T06:50:06.086Z,-2.88
2022-12-16T06:51:06.065Z,-2.87
2022-12-16T06:52:06.034Z,-2.70
2022-12-16T06:53:06.004Z,-2.63
2022-12-16T06:54:05.970Z,-2.74
2022-12-16T06:55:05.944Z,-2.61
2022-12-16T06:56:05.915Z,-2.67
2022-12-16T06:57:05.917Z,-2.61
2022-12-16T06:58:09.920Z,-2.70
2022-12-16T06:59:05.826Z,-2.79
2022-12-16T07:00:05.791Z,-2.85
2022-12-16T07:01:05.849Z,-2.94
2022-12-16T07:02:05.932Z,-2.87
2022-12-16T07:03:05.796Z,-2.92
2022-12-16T07:04:05.674Z,-2.88
2022-12-16T07:05:06.656Z,-2.79
2022-12-16T07:06:05.620Z,-2.87
2022-12-16T07:07:05.600Z,-2.90
2022-12-16T07:08:05.559Z,-2.85
2022-12-16T07:09:05.533Z,-2.82
2022-12-16T07:10:05.501Z,-2.80
2022-12-16T07:11:16.047Z,-2.74
2022-12-16T07:12:05.441Z,-2.76
2022-12-16T07:13:05.432Z,-2.70
2022-12-16T07:14:05.395Z,-2.66
2022-12-16T07:15:05.373Z,-2.67
2022-12-16T07:16:05.388Z,-2.69
2022-12-16T07:17:05.303Z,-2.61
2022-12-16T07:18:05.265Z,-2.64
2022-12-16T07:19:05.236Z,-2.69
2022-12-16T07:20:05.211Z,-2.63
2022-12-16T07:21:05.179Z,-2.63
2022-12-16T07:22:05.144Z,-2.54
2022-12-16T07:23:12.171Z,-2.63
2022-12-16T07:24:05.091Z,-2.61
2022-12-16T07:25:05.073Z,-2.70
2022-12-16T07:26:05.024Z,-2.66
2022-12-16T07:27:05.005Z,-2.80
2022-12-16T07:28:05.142Z,-2.82
2022-12-16T07:29:04.959Z,-2.94
2022-12-16T07:30:04.911Z,-2.94
2022-12-16T07:31:04.883Z,-3.02
2022-12-16T07:32:04.940Z,-2.98
2022-12-16T07:33:04.825Z,-3.09
2022-12-16T07:34:04.787Z,-3.10
2022-12-16T07:35:04.762Z,-3.10
2022-12-16T07:36:04.732Z,-3.08
2022-12-16T07:37:04.703Z,-3.20
2022-12-16T07:38:04.671Z,-3.24
2022-12-16T07:39:04.644Z,-3.20
2022-12-16T07:40:04.614Z,-3.06
2022-12-16T07:41:04.587Z,-3.01
2022-12-16T07:42:04.558Z,-3.12
2022-12-16T07:43:04.526Z,-3.02
2022-12-16T07:44:04.498Z,-2.95
2022-12-16T07:45:04.500Z,-2.91
2022-12-16T07:46:04.522Z,-2.85
2022-12-16T07:47:04.407Z,-2.79
2022-12-16T07:48:04.374Z,-2.69
2022-12-16T07:49:04.351Z,-2.67
2022-12-16T07:50:04.313Z,-2.79
2022-12-16T07:51:04.293Z,-2.88
2022-12-16T07:52:04.269Z,-2.91
2022-12-16T07:53:04.231Z,-2.98
2022-12-16T07:54:04.197Z,-3.05
2022-12-16T07:55:04.176Z,-3.05
2022-12-16T07:56:04.136Z,-2.97
2022-12-16T07:57:04.107Z,-2.88
2022-12-16T07:58:04.084Z,-2.88
2022-12-16T07:59:04.056Z,-2.79
2022-12-16T08:00:04.026Z,-2.80
2022-12-16T08:01:09.160Z,-2.91
2022-12-16T08:02:04.141Z,-3.02
2022-12-16T08:03:04.095Z,-3.10
2022-12-16T08:04:04.000Z,-3.01
2022-12-16T08:05:03.874Z,-2.90
2022-12-16T08:06:03.874Z,-2.90
2022-12-16T08:07:03.840Z,-2.88
2022-12-16T08:08:03.786Z,-2.87
2022-12-16T08:09:03.757Z,-2.90
2022-12-16T08:10:03.749Z,-3.01
2022-12-16T08:11:03.700Z,-2.90
2022-12-16T08:12:03.672Z,-2.85
2022-12-16T08:13:03.639Z,-2.85
2022-12-16T08:14:03.612Z,-2.94
2022-12-16T08:15:03.597Z,-3.02
2022-12-16T08:16:03.551Z,-3.02
2022-12-16T08:17:03.609Z,-3.10
2022-12-16T08:18:03.497Z,-3.03
2022-12-16T08:19:10.565Z,-2.95
2022-12-16T08:20:03.433Z,-2.79
2022-12-16T08:21:03.411Z,-2.67
2022-12-16T08:22:03.380Z,-2.46
2022-12-16T08:23:03.350Z,-2.26
2022-12-16T08:24:03.313Z,-2.12
2022-12-16T08:25:03.293Z,-1.94
2022-12-16T08:26:03.257Z,-1.88
2022-12-16T08:27:03.234Z,-1.82
2022-12-16T08:28:03.206Z,-1.57
2022-12-16T08:29:27.184Z,-1.43
2022-12-16T08:30:03.141Z,-1.22
2022-12-16T08:31:03.144Z,-1.25
2022-12-16T08:32:03.089Z,-0.90
2022-12-16T08:33:12.146Z,-0.81
2022-12-16T08:34:03.026Z,-0.53
2022-12-16T08:35:03.012Z,-0.64
2022-12-16T08:36:02.974Z,-0.50
2022-12-16T08:37:02.955Z,-0.22
2022-12-16T08:38:02.933Z,0.32
2022-12-16T08:39:02.894Z,0.40
2022-12-16T08:40:33.695Z,0.73
2022-12-16T08:41:02.846Z,0.50
2022-12-16T08:42:02.814Z,0.44
2022-12-16T08:43:05.544Z,0.45
2022-12-16T08:44:02.758Z,-0.01
2022-12-16T08:45:02.735Z,-0.49
2022-12-16T08:46:02.752Z,-1.15
2022-12-16T08:47:02.682Z,-1.13
2022-12-16T08:48:02.653Z,-1.33
2022-12-16T08:49:02.648Z,-1.83
2022-12-16T08:50:02.859Z,-1.76
2022-12-16T08:51:02.578Z,-1.55
2022-12-16T08:52:02.544Z,-1.40
2022-12-16T08:53:02.517Z,-1.21
2022-12-16T08:54:02.491Z,-1.08
2022-12-16T08:55:02.465Z,-0.92
2022-12-16T08:56:02.434Z,-0.85
2022-12-16T08:57:02.410Z,-0.73
2022-12-16T08:58:02.388Z,-0.61
2022-12-16T08:59:02.356Z,-0.49
2022-12-16T09:00:02.328Z,-0.61
2022-12-16T09:01:06.963Z,-0.49
2022-12-16T09:02:02.453Z,-0.17
2022-12-16T09:03:02.507Z,-0.20
2022-12-16T09:04:02.285Z,0.00
2022-12-16T09:05:02.227Z,0.11
2022-12-16T09:06:02.170Z,0.15
2022-12-16T09:07:02.146Z,-0.01
2022-12-16T09:08:02.109Z,-0.11
2022-12-16T09:09:02.092Z,-0.20
2022-12-16T09:10:02.065Z,-0.21
2022-12-16T09:11:02.032Z,-0.27
2022-12-16T09:12:02.005Z,-0.20
2022-12-16T09:13:01.984Z,-0.31
2022-12-16T09:14:01.957Z,-0.27
2022-12-16T09:15:01.924Z,-0.21
2022-12-16T09:16:02.016Z,-0.14
2022-12-16T09:17:01.873Z,-0.22
2022-12-16T09:18:01.845Z,-0.25
2022-12-16T09:19:01.820Z,-0.24
2022-12-16T09:20:01.789Z,-0.21
2022-12-16T09:21:01.793Z,-0.21
2022-12-16T09:22:01.743Z,-0.24
2022-12-16T09:23:01.709Z,-0.34
2022-12-16T09:24:01.674Z,-0.17
2022-12-16T09:25:01.658Z,-0.20
2022-12-16T09:26:01.699Z,-0.29
2022-12-16T09:27:01.603Z,-0.60
2022-12-16T09:28:01.566Z,-0.70
2022-12-16T09:29:01.548Z,-0.90
2022-12-16T09:30:01.515Z,-1.00
2022-12-16T09:31:01.594Z,-1.04
2022-12-16T09:32:01.470Z,-1.08
2022-12-16T09:33:01.434Z,-1.11
2022-12-16T09:34:01.421Z,-1.19
2022-12-16T09:35:01.377Z,-1.11
2022-12-16T09:36:01.365Z,-1.13
2022-12-16T09:37:01.380Z,-1.18
2022-12-16T09:38:01.312Z,-1.00
2022-12-16T09:39:01.270Z,-0.86
2022-12-16T09:40:01.248Z,-0.67
2022-12-16T09:41:01.225Z,-0.73
2022-12-16T09:42:01.198Z,-0.60
2022-12-16T09:43:01.161Z,-0.58
2022-12-16T09:44:01.126Z,-0.50
2022-12-16T09:45:01.098Z,-0.24
2022-12-16T09:46:01.163Z,-0.24
2022-12-16T09:47:06.654Z,-0.01
2022-12-16T09:48:01.033Z,0.23
2022-12-16T09:49:00.998Z,0.29
2022-12-16T09:50:00.970Z,0.00
2022-12-16T09:51:00.947Z,0.40
2022-12-16T09:52:00.907Z,0.59
2022-12-16T09:53:00.906Z,1.06
2022-12-16T09:54:00.856Z,1.34
2022-12-16T09:55:00.834Z,1.85
2022-12-16T09:56:00.803Z,2.50
2022-12-16T09:57:00.783Z,2.68
2022-12-16T09:58:00.757Z,3.15
2022-12-16T09:59:00.731Z,3.23
2022-12-16T10:00:00.708Z,3.12
2022-12-16T10:01:00.681Z,3.00
2022-12-16T10:02:00.782Z,2.96
2022-12-16T10:03:06.470Z,2.96
2022-12-16T10:04:00.695Z,2.94
2022-12-16T10:05:00.583Z,2.65
2022-12-16T10:06:00.571Z,2.65
2022-12-16T10:07:00.537Z,2.58
2022-12-16T10:08:00.511Z,2.60
2022-12-16T10:09:00.498Z,2.81
2022-12-16T10:10:00.468Z,2.78
2022-12-16T10:11:00.439Z,2.87
2022-12-16T10:12:00.415Z,3.09
2022-12-16T10:13:00.388Z,3.35
2022-12-16T10:14:00.369Z,3.63
2022-12-16T10:15:00.343Z,3.91
2022-12-16T10:16:00.372Z,4.21
2022-12-16T10:17:00.295Z,4.35
2022-12-16T10:18:00.297Z,4.28
2022-12-16T10:19:00.294Z,4.12
2022-12-16T10:20:05.964Z,4.09
2022-12-16T10:21:00.216Z,4.16
2022-12-16T10:22:00.186Z,4.17
2022-12-16T10:23:00.155Z,4.08
2022-12-16T10:24:00.139Z,4.10
2022-12-16T10:25:00.159Z,3.88
2022-12-16T10:26:00.123Z,3.63
2022-12-16T10:27:00.082Z,3.45
2022-12-16T10:28:00.044Z,3.35
2022-12-16T10:29:00.022Z,3.37
2022-12-16T10:29:59.995Z,3.26
2022-12-16T10:31:00.011Z,3.33
2022-12-16T10:31:59.958Z,3.56
2022-12-16T10:32:59.925Z,3.54
2022-12-16T10:33:59.901Z,3.91
2022-12-16T10:34:59.885Z,4.10
2022-12-16T10:35:59.873Z,4.12
2022-12-16T10:36:59.833Z,4.06
2022-12-16T10:37:59.820Z,4.23
2022-12-16T10:38:59.796Z,4.12
2022-12-16T10:39:59.781Z,4.10
2022-12-16T10:40:59.779Z,4.16
2022-12-16T10:41:59.724Z,4.35
2022-12-16T10:42:59.697Z,4.31
2022-12-16T10:43:59.676Z,4.60
2022-12-16T10:44:59.665Z,4.88
2022-12-16T10:45:59.720Z,4.96
2022-12-16T10:46:59.646Z,4.85
2022-12-16T10:47:59.589Z,4.64
2022-12-16T10:48:59.625Z,4.74
2022-12-16T10:49:59.606Z,4.74
2022-12-16T10:50:59.523Z,4.57
2022-12-16T10:52:02.757Z,4.21
2022-12-16T10:52:59.479Z,4.23
2022-12-16T10:53:59.450Z,4.34
2022-12-16T10:54:59.428Z,4.46
2022-12-16T10:55:59.406Z,4.78
2022-12-16T10:56:59.509Z,5.44
2022-12-16T10:57:59.367Z,5.57
2022-12-16T10:58:59.336Z,5.79
2022-12-16T10:59:59.316Z,5.67
2022-12-16T11:00:59.296Z,5.66
2022-12-16T11:01:59.439Z,5.72
2022-12-16T11:02:59.561Z,5.76
2022-12-16T11:03:59.343Z,5.73
2022-12-16T11:04:59.225Z,5.80
2022-12-16T11:05:59.192Z,5.80
2022-12-16T11:06:59.167Z,5.97
2022-12-16T11:07:59.148Z,5.94
2022-12-16T11:08:59.130Z,6.18
2022-12-16T11:09:59.108Z,6.13
2022-12-16T11:10:59.087Z,6.24
2022-12-16T11:11:59.062Z,6.06
2022-12-16T11:12:59.096Z,6.09
2022-12-16T11:13:59.026Z,5.98
2022-12-16T11:15:27.639Z,6.06
2022-12-16T11:15:59.081Z,6.15
2022-12-16T11:16:58.950Z,6.15
2022-12-16T11:17:58.936Z,6.34
2022-12-16T11:18:58.910Z,6.40
2022-12-16T11:19:58.891Z,6.24
2022-12-16T11:20:58.890Z,6.24
2022-12-16T11:21:58.845Z,6.03
2022-12-16T11:22:58.831Z,5.79
2022-12-16T11:23:58.804Z,5.62
2022-12-16T11:24:58.778Z,5.62
2022-12-16T11:25:58.760Z,5.47
2022-12-16T11:26:58.741Z,5.50
2022-12-16T11:27:58.720Z,5.70
2022-12-16T11:28:58.793Z,5.76
2022-12-16T11:29:58.676Z,5.79
2022-12-16T11:30:58.718Z,5.61
2022-12-16T11:32:01.229Z,5.41
2022-12-16T11:32:58.638Z,5.54
2022-12-16T11:33:58.600Z,5.48
2022-12-16T11:34:58.572Z,5.59
2022-12-16T11:35:58.565Z,5.51
2022-12-16T11:36:58.523Z,5.59
2022-12-16T11:37:58.506Z,5.77
2022-12-16T11:38:58.503Z,5.94
2022-12-16T11:39:58.461Z,5.79
2022-12-16T11:40:58.447Z,5.59
2022-12-16T11:41:58.421Z,5.41
2022-12-16T11:43:01.382Z,5.25
2022-12-16T11:43:58.400Z,5.22
2022-12-16T11:44:58.383Z,5.40
2022-12-16T11:45:58.339Z,5.36
2022-12-16T11:46:58.368Z,5.41
2022-12-16T11:47:58.298Z,5.41
2022-12-16T11:48:58.268Z,5.55
2022-12-16T11:49:58.261Z,5.59
2022-12-16T11:50:58.229Z,5.67
2022-12-16T11:52:20.908Z,5.79
2022-12-16T11:52:58.184Z,5.91
2022-12-16T11:53:58.173Z,6.06
2022-12-16T11:54:58.148Z,6.42
2022-12-16T11:56:12.513Z,6.38
2022-12-16T11:56:58.247Z,6.42
2022-12-16T11:57:58.080Z,6.61
2022-12-16T11:58:58.059Z,6.55
2022-12-16T11:59:58.044Z,6.73
2022-12-16T12:00:58.059Z,6.92
2022-12-16T12:01:58.054Z,6.93
2022-12-16T12:02:58.065Z,6.82
2022-12-16T12:03:58.119Z,6.60
2022-12-16T12:04:57.933Z,6.60
2022-12-16T12:05:57.919Z,6.55
2022-12-16T12:06:57.894Z,6.60
2022-12-16T12:07:57.879Z,6.61
2022-12-16T12:08:57.860Z,6.27
2022-12-16T12:09:57.838Z,6.42
2022-12-16T12:10:57.813Z,6.61
2022-12-16T12:11:57.799Z,6.35
2022-12-16T12:12:57.773Z,6.19
2022-12-16T12:13:57.777Z,6.31
2022-12-16T12:14:57.736Z,6.25
2022-12-16T12:15:57.759Z,6.50
2022-12-16T12:16:57.727Z,6.56
2022-12-16T12:17:57.673Z,6.74
2022-12-16T12:18:57.657Z,6.91
2022-12-16T12:19:57.632Z,6.91
2022-12-16T12:20:57.619Z,6.96
2022-12-16T12:21:57.625Z,6.92
2022-12-16T12:22:57.573Z,6.96
2022-12-16T12:23:57.556Z,6.89
2022-12-16T12:24:58.168Z,6.93
2022-12-16T12:25:57.517Z,6.68
2022-12-16T12:26:57.491Z,6.35
2022-12-16T12:27:57.475Z,6.24
2022-12-16T12:28:57.453Z,5.95
2022-12-16T12:29:57.436Z,6.03
2022-12-16T12:30:57.417Z,5.93
2022-12-16T12:31:57.452Z,5.80
2022-12-16T12:32:57.403Z,5.79
2022-12-16T12:33:57.372Z,5.75
2022-12-16T12:34:57.367Z,5.73
2022-12-16T12:35:57.312Z,5.70
2022-12-16T12:36:57.289Z,5.61
2022-12-16T12:37:57.268Z,5.55
2022-12-16T12:38:57.249Z,5.44
2022-12-16T12:39:57.225Z,5.25
2022-12-16T12:40:57.201Z,5.25
2022-12-16T12:41:57.188Z,5.07
2022-12-16T12:42:57.191Z,5.07
2022-12-16T12:43:57.143Z,4.98
2022-12-16T12:44:57.119Z,5.00
2022-12-16T12:45:57.098Z,5.01
2022-12-16T12:46:57.138Z,5.00
2022-12-16T12:47:57.054Z,5.00
2022-12-16T12:48:57.802Z,4.83
2022-12-16T12:49:57.016Z,4.72
2022-12-16T12:50:56.984Z,4.67
2022-12-16T12:51:56.970Z,4.61
2022-12-16T12:52:56.946Z,4.61
2022-12-16T12:53:56.919Z,4.57
2022-12-16T12:54:56.906Z,4.64
2022-12-16T12:55:56.878Z,4.72
2022-12-16T12:56:56.850Z,4.78
2022-12-16T12:57:56.832Z,4.61
2022-12-16T12:58:56.810Z,4.60